sensor_id;sensor_type;location;lat;lon;timestamp;P1;durP1;ratioP1;P2;durP2;ratioP2
15681;SDS011;7941;50.966;6.978;2022-09-13T00:00:37;8.37;;;5.77;;
15681;SDS011;7941;50.966;6.978;2022-09-13T00:03:03;8.50;;;6.13;;
15681;SDS011;7941;50.966;6.978;2022-09-13T00:05:30;7.43;;;6.30;;
15681;SDS011;7941;50.966;6.978;2022-09-13T00:07:56;6.87;;;6.27;;
15681;SDS011;7941;50.966;6.978;2022-09-13T00:10:22;7.23;;;5.60;;
15681;SDS011;7941;50.966;6.978;2022-09-13T00:12:49;9.70;;;6.87;;
15681;SDS011;7941;50.966;6.978;2022-09-13T00:15:15;7.00;;;6.30;;
15681;SDS011;7941;50.966;6.978;2022-09-13T00:17:41;7.17;;;6.53;;
15681;SDS011;7941;50.966;6.978;2022-09-13T00:20:07;7.53;;;6.80;;
15681;SDS011;7941;50.966;6.978;2022-09-13T00:22:34;7.13;;;6.53;;
15681;SDS011;7941;50.966;6.978;2022-09-13T00:25:01;8.07;;;7.33;;
15681;SDS011;7941;50.966;6.978;2022-09-13T00:27:26;7.67;;;7.03;;
15681;SDS011;7941;50.966;6.978;2022-09-13T00:29:52;10.83;;;7.60;;
15681;SDS011;7941;50.966;6.978;2022-09-13T00:32:19;8.17;;;7.37;;
15681;SDS011;7941;50.966;6.978;2022-09-13T00:34:45;9.23;;;7.37;;
15681;SDS011;7941;50.966;6.978;2022-09-13T00:37:11;7.90;;;7.10;;
15681;SDS011;7941;50.966;6.978;2022-09-13T00:39:37;8.70;;;7.63;;
15681;SDS011;7941;50.966;6.978;2022-09-13T00:42:03;8.30;;;7.50;;
15681;SDS011;7941;50.966;6.978;2022-09-13T00:47:15;8.37;;;7.67;;
15681;SDS011;7941;50.966;6.978;2022-09-13T00:49:43;11.00;;;7.87;;
15681;SDS011;7941;50.966;6.978;2022-09-13T00:52:12;8.13;;;7.40;;
15681;SDS011;7941;50.966;6.978;2022-09-13T00:54:41;7.03;;;6.40;;
15681;SDS011;7941;50.966;6.978;2022-09-13T00:57:08;7.80;;;7.07;;
15681;SDS011;7941;50.966;6.978;2022-09-13T00:59:42;7.73;;;6.97;;
15681;SDS011;7941;50.966;6.978;2022-09-13T01:02:09;8.03;;;7.33;;
15681;SDS011;7941;50.966;6.978;2022-09-13T01:04:35;7.73;;;6.97;;
15681;SDS011;7941;50.966;6.978;2022-09-13T01:07:06;7.93;;;6.80;;
15681;SDS011;7941;50.966;6.978;2022-09-13T01:09:34;8.40;;;7.70;;
15681;SDS011;7941;50.966;6.978;2022-09-13T01:12:04;7.67;;;6.97;;
15681;SDS011;7941;50.966;6.978;2022-09-13T01:14:32;7.27;;;6.67;;
15681;SDS011;7941;50.966;6.978;2022-09-13T01:16:59;7.47;;;6.83;;
15681;SDS011;7941;50.966;6.978;2022-09-13T01:19:26;6.97;;;6.37;;
15681;SDS011;7941;50.966;6.978;2022-09-13T01:30:14;6.63;;;6.07;;
15681;SDS011;7941;50.966;6.978;2022-09-13T01:35:23;7.63;;;6.33;;
15681;SDS011;7941;50.966;6.978;2022-09-13T01:50:40;6.50;;;6.00;;
15681;SDS011;7941;50.966;6.978;2022-09-13T01:53:19;7.77;;;6.43;;
15681;SDS011;7941;50.966;6.978;2022-09-13T01:55:56;7.00;;;6.40;;
15681;SDS011;7941;50.966;6.978;2022-09-13T01:58:43;6.23;;;5.63;;
15681;SDS011;7941;50.966;6.978;2022-09-13T02:01:19;6.77;;;6.07;;
15681;SDS011;7941;50.966;6.978;2022-09-13T02:03:54;6.37;;;5.80;;
15681;SDS011;7941;50.966;6.978;2022-09-13T02:06:23;7.23;;;6.33;;
15681;SDS011;7941;50.966;6.978;2022-09-13T02:08:53;8.33;;;6.43;;
15681;SDS011;7941;50.966;6.978;2022-09-13T02:11:20;8.63;;;6.20;;
15681;SDS011;7941;50.966;6.978;2022-09-13T02:18:52;8.37;;;7.57;;
15681;SDS011;7941;50.966;6.978;2022-09-13T02:21:20;8.20;;;7.00;;
15681;SDS011;7941;50.966;6.978;2022-09-13T02:23:50;7.60;;;6.60;;
15681;SDS011;7941;50.966;6.978;2022-09-13T02:26:19;6.80;;;6.30;;
15681;SDS011;7941;50.966;6.978;2022-09-13T02:28:50;6.37;;;5.77;;
15681;SDS011;7941;50.966;6.978;2022-09-13T02:31:25;6.57;;;6.03;;
15681;SDS011;7941;50.966;6.978;2022-09-13T02:33:56;7.47;;;5.60;;
15681;SDS011;7941;50.966;6.978;2022-09-13T02:36:23;6.87;;;6.03;;
15681;SDS011;7941;50.966;6.978;2022-09-13T02:38:52;6.47;;;5.90;;
15681;SDS011;7941;50.966;6.978;2022-09-13T02:41:24;6.63;;;6.03;;
15681;SDS011;7941;50.966;6.978;2022-09-13T02:43:58;6.47;;;5.87;;
15681;SDS011;7941;50.966;6.978;2022-09-13T02:51:54;5.87;;;5.47;;
15681;SDS011;7941;50.966;6.978;2022-09-13T02:56:55;5.73;;;5.23;;
15681;SDS011;7941;50.966;6.978;2022-09-13T02:59:22;7.23;;;6.13;;
15681;SDS011;7941;50.966;6.978;2022-09-13T03:02:31;7.10;;;6.37;;
15681;SDS011;7941;50.966;6.978;2022-09-13T03:04:38;7.80;;;6.23;;
15681;SDS011;7941;50.966;6.978;2022-09-13T03:07:07;7.20;;;6.60;;
15681;SDS011;7941;50.966;6.978;2022-09-13T03:09:34;7.40;;;6.80;;
15681;SDS011;7941;50.966;6.978;2022-09-13T03:14:39;7.33;;;6.53;;
15681;SDS011;7941;50.966;6.978;2022-09-13T03:24:46;8.60;;;7.80;;
15681;SDS011;7941;50.966;6.978;2022-09-13T03:29:48;8.00;;;7.20;;
15681;SDS011;7941;50.966;6.978;2022-09-13T03:37:31;8.67;;;7.63;;
15681;SDS011;7941;50.966;6.978;2022-09-13T03:39:59;8.13;;;7.37;;
15681;SDS011;7941;50.966;6.978;2022-09-13T03:42:32;9.00;;;7.90;;
15681;SDS011;7941;50.966;6.978;2022-09-13T03:44:59;8.73;;;7.93;;
15681;SDS011;7941;50.966;6.978;2022-09-13T03:47:27;7.73;;;7.03;;
15681;SDS011;7941;50.966;6.978;2022-09-13T03:49:56;8.00;;;7.30;;
15681;SDS011;7941;50.966;6.978;2022-09-13T03:52:23;8.07;;;7.33;;
15681;SDS011;7941;50.966;6.978;2022-09-13T03:54:49;8.17;;;7.47;;
15681;SDS011;7941;50.966;6.978;2022-09-13T03:57:19;7.87;;;7.17;;
15681;SDS011;7941;50.966;6.978;2022-09-13T03:59:46;7.80;;;7.20;;
15681;SDS011;7941;50.966;6.978;2022-09-13T04:02:14;7.80;;;7.07;;
15681;SDS011;7941;50.966;6.978;2022-09-13T04:04:41;7.37;;;6.67;;
15681;SDS011;7941;50.966;6.978;2022-09-13T04:07:08;7.70;;;7.00;;
15681;SDS011;7941;50.966;6.978;2022-09-13T04:09:35;8.40;;;7.53;;
15681;SDS011;7941;50.966;6.978;2022-09-13T04:12:01;7.90;;;7.20;;
15681;SDS011;7941;50.966;6.978;2022-09-13T04:14:27;7.77;;;7.07;;
15681;SDS011;7941;50.966;6.978;2022-09-13T04:16:54;7.17;;;6.53;;
15681;SDS011;7941;50.966;6.978;2022-09-13T04:19:21;8.07;;;7.33;;
15681;SDS011;7941;50.966;6.978;2022-09-13T04:21:48;7.53;;;6.93;;
15681;SDS011;7941;50.966;6.978;2022-09-13T04:24:14;6.67;;;6.17;;
15681;SDS011;7941;50.966;6.978;2022-09-13T04:26:40;7.03;;;6.27;;
15681;SDS011;7941;50.966;6.978;2022-09-13T04:29:07;7.10;;;6.50;;
15681;SDS011;7941;50.966;6.978;2022-09-13T04:31:33;7.10;;;6.40;;
15681;SDS011;7941;50.966;6.978;2022-09-13T04:33:59;7.70;;;7.00;;
15681;SDS011;7941;50.966;6.978;2022-09-13T04:36:25;7.27;;;6.40;;
15681;SDS011;7941;50.966;6.978;2022-09-13T04:38:52;7.20;;;6.60;;
15681;SDS011;7941;50.966;6.978;2022-09-13T04:41:18;7.30;;;6.70;;
15681;SDS011;7941;50.966;6.978;2022-09-13T04:43:48;7.43;;;6.70;;
15681;SDS011;7941;50.966;6.978;2022-09-13T04:46:14;7.30;;;6.60;;
15681;SDS011;7941;50.966;6.978;2022-09-13T04:48:40;10.33;;;6.47;;
15681;SDS011;7941;50.966;6.978;2022-09-13T04:51:07;7.43;;;6.73;;
15681;SDS011;7941;50.966;6.978;2022-09-13T04:53:33;6.87;;;6.27;;
15681;SDS011;7941;50.966;6.978;2022-09-13T04:56:03;7.00;;;6.30;;
15681;SDS011;7941;50.966;6.978;2022-09-13T04:58:29;7.00;;;6.33;;
15681;SDS011;7941;50.966;6.978;2022-09-13T05:01:02;7.13;;;6.17;;
15681;SDS011;7941;50.966;6.978;2022-09-13T05:03:29;7.73;;;6.23;;
15681;SDS011;7941;50.966;6.978;2022-09-13T05:06:00;6.43;;;5.93;;
15681;SDS011;7941;50.966;6.978;2022-09-13T05:08:26;6.53;;;5.93;;
15681;SDS011;7941;50.966;6.978;2022-09-13T05:10:52;6.23;;;5.63;;
15681;SDS011;7941;50.966;6.978;2022-09-13T05:13:19;5.70;;;5.10;;
15681;SDS011;7941;50.966;6.978;2022-09-13T05:15:45;5.77;;;5.27;;
15681;SDS011;7941;50.966;6.978;2022-09-13T05:18:11;6.37;;;5.43;;
15681;SDS011;7941;50.966;6.978;2022-09-13T05:20:37;5.20;;;4.80;;
15681;SDS011;7941;50.966;6.978;2022-09-13T05:23:03;5.80;;;5.20;;
15681;SDS011;7941;50.966;6.978;2022-09-13T05:25:29;5.53;;;4.87;;
15681;SDS011;7941;50.966;6.978;2022-09-13T05:27:56;6.47;;;5.00;;
15681;SDS011;7941;50.966;6.978;2022-09-13T05:30:22;6.17;;;5.03;;
15681;SDS011;7941;50.966;6.978;2022-09-13T05:32:48;8.40;;;5.33;;
15681;SDS011;7941;50.966;6.978;2022-09-13T05:35:14;5.53;;;4.93;;
15681;SDS011;7941;50.966;6.978;2022-09-13T05:37:41;5.60;;;5.20;;
15681;SDS011;7941;50.966;6.978;2022-09-13T05:40:07;5.70;;;5.07;;
15681;SDS011;7941;50.966;6.978;2022-09-13T05:42:33;5.40;;;5.00;;
15681;SDS011;7941;50.966;6.978;2022-09-13T05:44:59;5.40;;;5.00;;
15681;SDS011;7941;50.966;6.978;2022-09-13T05:47:25;5.43;;;4.90;;
15681;SDS011;7941;50.966;6.978;2022-09-13T05:49:51;5.50;;;5.00;;
15681;SDS011;7941;50.966;6.978;2022-09-13T05:52:17;5.83;;;5.27;;
15681;SDS011;7941;50.966;6.978;2022-09-13T05:54:43;6.27;;;5.43;;
15681;SDS011;7941;50.966;6.978;2022-09-13T05:57:09;8.20;;;5.30;;
15681;SDS011;7941;50.966;6.978;2022-09-13T05:59:35;6.30;;;5.70;;
15681;SDS011;7941;50.966;6.978;2022-09-13T06:02:01;6.47;;;5.43;;
15681;SDS011;7941;50.966;6.978;2022-09-13T06:04:28;6.57;;;5.90;;
15681;SDS011;7941;50.966;6.978;2022-09-13T06:06:54;7.77;;;6.13;;
15681;SDS011;7941;50.966;6.978;2022-09-13T06:09:20;5.83;;;5.23;;
15681;SDS011;7941;50.966;6.978;2022-09-13T06:11:46;6.63;;;5.90;;
15681;SDS011;7941;50.966;6.978;2022-09-13T06:14:12;8.43;;;6.50;;
15681;SDS011;7941;50.966;6.978;2022-09-13T06:16:38;6.70;;;6.13;;
15681;SDS011;7941;50.966;6.978;2022-09-13T06:19:04;6.17;;;5.63;;
15681;SDS011;7941;50.966;6.978;2022-09-13T06:21:31;7.07;;;5.63;;
15681;SDS011;7941;50.966;6.978;2022-09-13T06:23:57;6.80;;;6.10;;
15681;SDS011;7941;50.966;6.978;2022-09-13T06:26:24;6.10;;;5.20;;
15681;SDS011;7941;50.966;6.978;2022-09-13T06:28:51;7.17;;;5.93;;
15681;SDS011;7941;50.966;6.978;2022-09-13T06:31:18;7.97;;;6.07;;
15681;SDS011;7941;50.966;6.978;2022-09-13T06:33:45;8.37;;;5.67;;
15681;SDS011;7941;50.966;6.978;2022-09-13T06:36:12;8.70;;;5.97;;
15681;SDS011;7941;50.966;6.978;2022-09-13T06:38:39;10.40;;;5.70;;
15681;SDS011;7941;50.966;6.978;2022-09-13T06:43:32;7.43;;;5.67;;
15681;SDS011;7941;50.966;6.978;2022-09-13T06:45:59;7.87;;;5.87;;
15681;SDS011;7941;50.966;6.978;2022-09-13T06:48:25;10.60;;;5.77;;
15681;SDS011;7941;50.966;6.978;2022-09-13T06:50:52;6.17;;;5.57;;
15681;SDS011;7941;50.966;6.978;2022-09-13T06:53:18;8.53;;;5.93;;
15681;SDS011;7941;50.966;6.978;2022-09-13T06:55:44;9.33;;;5.57;;
15681;SDS011;7941;50.966;6.978;2022-09-13T06:58:10;7.13;;;5.57;;
15681;SDS011;7941;50.966;6.978;2022-09-13T07:00:36;7.43;;;5.30;;
15681;SDS011;7941;50.966;6.978;2022-09-13T07:03:02;12.07;;;5.80;;
15681;SDS011;7941;50.966;6.978;2022-09-13T07:05:28;8.73;;;5.60;;
15681;SDS011;7941;50.966;6.978;2022-09-13T07:07:54;10.03;;;5.70;;
15681;SDS011;7941;50.966;6.978;2022-09-13T07:10:21;7.53;;;5.53;;
15681;SDS011;7941;50.966;6.978;2022-09-13T07:12:47;7.30;;;5.77;;
15681;SDS011;7941;50.966;6.978;2022-09-13T07:15:13;9.30;;;6.77;;
15681;SDS011;7941;50.966;6.978;2022-09-13T07:17:39;6.67;;;5.53;;
15681;SDS011;7941;50.966;6.978;2022-09-13T07:20:05;6.27;;;5.67;;
15681;SDS011;7941;50.966;6.978;2022-09-13T07:22:32;6.20;;;5.67;;
15681;SDS011;7941;50.966;6.978;2022-09-13T07:24:58;8.13;;;6.47;;
15681;SDS011;7941;50.966;6.978;2022-09-13T07:27:25;5.83;;;5.30;;
15681;SDS011;7941;50.966;6.978;2022-09-13T07:29:51;8.43;;;5.13;;
15681;SDS011;7941;50.966;6.978;2022-09-13T07:32:17;7.97;;;4.87;;
15681;SDS011;7941;50.966;6.978;2022-09-13T07:34:43;7.37;;;5.03;;
15681;SDS011;7941;50.966;6.978;2022-09-13T07:37:09;9.50;;;6.30;;
15681;SDS011;7941;50.966;6.978;2022-09-13T07:39:36;7.47;;;6.67;;
15681;SDS011;7941;50.966;6.978;2022-09-13T07:42:02;9.13;;;6.00;;
15681;SDS011;7941;50.966;6.978;2022-09-13T07:44:28;6.20;;;5.60;;
15681;SDS011;7941;50.966;6.978;2022-09-13T07:46:54;11.57;;;4.97;;
15681;SDS011;7941;50.966;6.978;2022-09-13T07:49:20;6.43;;;5.20;;
15681;SDS011;7941;50.966;6.978;2022-09-13T07:51:46;8.17;;;5.27;;
15681;SDS011;7941;50.966;6.978;2022-09-13T07:54:16;7.10;;;5.10;;
15681;SDS011;7941;50.966;6.978;2022-09-13T07:56:42;5.63;;;4.83;;
15681;SDS011;7941;50.966;6.978;2022-09-13T07:59:13;7.67;;;5.17;;
15681;SDS011;7941;50.966;6.978;2022-09-13T08:01:40;9.17;;;4.57;;
15681;SDS011;7941;50.966;6.978;2022-09-13T08:04:07;6.83;;;5.00;;
15681;SDS011;7941;50.966;6.978;2022-09-13T08:06:34;7.03;;;5.93;;
15681;SDS011;7941;50.966;6.978;2022-09-13T08:09:01;7.23;;;5.10;;
15681;SDS011;7941;50.966;6.978;2022-09-13T08:11:29;10.20;;;5.00;;
15681;SDS011;7941;50.966;6.978;2022-09-13T08:13:56;17.93;;;5.50;;
15681;SDS011;7941;50.966;6.978;2022-09-13T08:16:22;12.10;;;5.07;;
15681;SDS011;7941;50.966;6.978;2022-09-13T08:18:50;11.07;;;4.53;;
15681;SDS011;7941;50.966;6.978;2022-09-13T08:21:16;8.47;;;5.03;;
15681;SDS011;7941;50.966;6.978;2022-09-13T08:23:43;10.37;;;5.43;;
15681;SDS011;7941;50.966;6.978;2022-09-13T08:26:09;8.83;;;4.93;;
15681;SDS011;7941;50.966;6.978;2022-09-13T08:28:36;7.27;;;5.00;;
15681;SDS011;7941;50.966;6.978;2022-09-13T08:31:05;9.67;;;5.10;;
15681;SDS011;7941;50.966;6.978;2022-09-13T08:33:32;8.87;;;5.07;;
15681;SDS011;7941;50.966;6.978;2022-09-13T08:35:58;12.07;;;5.50;;
15681;SDS011;7941;50.966;6.978;2022-09-13T08:38:24;6.60;;;5.30;;
15681;SDS011;7941;50.966;6.978;2022-09-13T08:40:57;10.27;;;5.40;;
15681;SDS011;7941;50.966;6.978;2022-09-13T08:46:36;7.37;;;5.30;;
15681;SDS011;7941;50.966;6.978;2022-09-13T08:48:43;9.27;;;4.93;;
15681;SDS011;7941;50.966;6.978;2022-09-13T08:53:56;10.87;;;5.70;;
15681;SDS011;7941;50.966;6.978;2022-09-13T08:56:28;8.57;;;4.70;;
15681;SDS011;7941;50.966;6.978;2022-09-13T09:06:28;9.20;;;5.10;;
15681;SDS011;7941;50.966;6.978;2022-09-13T09:08:57;9.60;;;5.47;;
15681;SDS011;7941;50.966;6.978;2022-09-13T09:11:29;6.30;;;4.47;;
15681;SDS011;7941;50.966;6.978;2022-09-13T09:14:30;10.93;;;4.00;;
15681;SDS011;7941;50.966;6.978;2022-09-13T09:16:57;7.53;;;4.60;;
15681;SDS011;7941;50.966;6.978;2022-09-13T09:19:29;5.57;;;4.40;;
15681;SDS011;7941;50.966;6.978;2022-09-13T09:21:59;7.77;;;4.53;;
15681;SDS011;7941;50.966;6.978;2022-09-13T09:24:26;5.93;;;4.30;;
15681;SDS011;7941;50.966;6.978;2022-09-13T09:26:52;6.77;;;4.63;;
15681;SDS011;7941;50.966;6.978;2022-09-13T09:29:28;8.70;;;4.37;;
15681;SDS011;7941;50.966;6.978;2022-09-13T09:39:42;5.27;;;3.67;;
15681;SDS011;7941;50.966;6.978;2022-09-13T09:42:15;9.37;;;3.87;;
15681;SDS011;7941;50.966;6.978;2022-09-13T09:44:52;4.10;;;3.33;;
15681;SDS011;7941;50.966;6.978;2022-09-13T09:50:23;8.03;;;3.57;;
15681;SDS011;7941;50.966;6.978;2022-09-13T09:53:14;8.00;;;4.20;;
15681;SDS011;7941;50.966;6.978;2022-09-13T09:55:46;6.03;;;3.90;;
15681;SDS011;7941;50.966;6.978;2022-09-13T09:58:16;4.97;;;3.40;;
15681;SDS011;7941;50.966;6.978;2022-09-13T10:00:49;4.93;;;3.40;;
15681;SDS011;7941;50.966;6.978;2022-09-13T10:03:17;4.47;;;3.40;;
15681;SDS011;7941;50.966;6.978;2022-09-13T10:05:44;3.93;;;3.23;;
15681;SDS011;7941;50.966;6.978;2022-09-13T10:44:54;3.37;;;3.07;;
15681;SDS011;7941;50.966;6.978;2022-09-13T10:47:25;5.30;;;2.83;;
15681;SDS011;7941;50.966;6.978;2022-09-13T10:49:54;4.33;;;2.50;;
15681;SDS011;7941;50.966;6.978;2022-09-13T10:52:28;3.77;;;2.60;;
15681;SDS011;7941;50.966;6.978;2022-09-13T10:54:55;4.37;;;2.37;;
15681;SDS011;7941;50.966;6.978;2022-09-13T10:57:39;3.77;;;2.37;;
15681;SDS011;7941;50.966;6.978;2022-09-13T11:00:06;7.73;;;2.73;;
15681;SDS011;7941;50.966;6.978;2022-09-13T11:07:56;4.60;;;2.50;;
15681;SDS011;7941;50.966;6.978;2022-09-13T11:23:20;3.53;;;2.70;;
15681;SDS011;7941;50.966;6.978;2022-09-13T11:26:03;6.23;;;2.40;;
15681;SDS011;7941;50.966;6.978;2022-09-13T11:28:37;4.93;;;2.20;;
15681;SDS011;7941;50.966;6.978;2022-09-13T11:39:18;4.67;;;2.63;;
15681;SDS011;7941;50.966;6.978;2022-09-13T11:44:24;3.13;;;2.27;;
15681;SDS011;7941;50.966;6.978;2022-09-13T11:47:07;2.57;;;1.97;;
15681;SDS011;7941;50.966;6.978;2022-09-13T11:52:27;3.50;;;1.60;;
15681;SDS011;7941;50.966;6.978;2022-09-13T11:57:50;3.80;;;1.83;;
15681;SDS011;7941;50.966;6.978;2022-09-13T12:00:18;3.60;;;1.70;;
15681;SDS011;7941;50.966;6.978;2022-09-13T12:05:21;2.30;;;1.83;;
15681;SDS011;7941;50.966;6.978;2022-09-13T12:07:49;2.70;;;2.10;;
15681;SDS011;7941;50.966;6.978;2022-09-13T12:12:42;3.83;;;1.90;;
15681;SDS011;7941;50.966;6.978;2022-09-13T12:15:14;6.13;;;2.00;;
15681;SDS011;7941;50.966;6.978;2022-09-13T12:17:44;3.33;;;1.70;;
15681;SDS011;7941;50.966;6.978;2022-09-13T12:20:34;6.37;;;1.90;;
15681;SDS011;7941;50.966;6.978;2022-09-13T12:22:59;2.57;;;1.70;;
15681;SDS011;7941;50.966;6.978;2022-09-13T12:25:33;4.20;;;1.60;;
15681;SDS011;7941;50.966;6.978;2022-09-13T12:28:05;2.43;;;1.20;;
15681;SDS011;7941;50.966;6.978;2022-09-13T12:30:41;1.95;;;1.60;;
15681;SDS011;7941;50.966;6.978;2022-09-13T12:33:10;4.57;;;1.77;;
15681;SDS011;7941;50.966;6.978;2022-09-13T12:35:42;2.08;;;1.58;;
15681;SDS011;7941;50.966;6.978;2022-09-13T12:38:25;4.35;;;2.17;;
15681;SDS011;7941;50.966;6.978;2022-09-13T12:43:26;4.63;;;1.90;;
15681;SDS011;7941;50.966;6.978;2022-09-13T12:46:06;4.68;;;1.70;;
15681;SDS011;7941;50.966;6.978;2022-09-13T13:02:00;2.50;;;1.83;;
15681;SDS011;7941;50.966;6.978;2022-09-13T13:04:29;5.33;;;1.80;;
15681;SDS011;7941;50.966;6.978;2022-09-13T13:07:06;3.73;;;1.70;;
15681;SDS011;7941;50.966;6.978;2022-09-13T13:09:40;3.97;;;1.93;;
15681;SDS011;7941;50.966;6.978;2022-09-13T13:12:26;3.73;;;1.70;;
15681;SDS011;7941;50.966;6.978;2022-09-13T13:14:52;3.10;;;1.83;;
15681;SDS011;7941;50.966;6.978;2022-09-13T13:17:40;2.33;;;1.77;;
15681;SDS011;7941;50.966;6.978;2022-09-13T13:22:52;3.83;;;1.90;;
15681;SDS011;7941;50.966;6.978;2022-09-13T13:25:32;4.10;;;1.90;;
15681;SDS011;7941;50.966;6.978;2022-09-13T13:28:02;6.60;;;2.20;;
15681;SDS011;7941;50.966;6.978;2022-09-13T13:33:19;3.57;;;2.53;;
15681;SDS011;7941;50.966;6.978;2022-09-13T13:35:46;4.73;;;1.80;;
15681;SDS011;7941;50.966;6.978;2022-09-13T13:38:14;3.53;;;1.70;;
15681;SDS011;7941;50.966;6.978;2022-09-13T13:40:40;2.90;;;1.50;;
15681;SDS011;7941;50.966;6.978;2022-09-13T13:45:57;2.65;;;1.92;;
15681;SDS011;7941;50.966;6.978;2022-09-13T13:48:34;5.23;;;2.40;;
15681;SDS011;7941;50.966;6.978;2022-09-13T13:51:22;4.97;;;2.50;;
15681;SDS011;7941;50.966;6.978;2022-09-13T13:53:52;6.03;;;1.90;;
15681;SDS011;7941;50.966;6.978;2022-09-13T13:58:46;2.73;;;1.60;;
15681;SDS011;7941;50.966;6.978;2022-09-13T14:01:20;3.13;;;1.40;;
15681;SDS011;7941;50.966;6.978;2022-09-13T14:09:26;2.80;;;1.47;;
15681;SDS011;7941;50.966;6.978;2022-09-13T14:24:50;2.40;;;1.50;;
15681;SDS011;7941;50.966;6.978;2022-09-13T14:27:28;1.87;;;1.37;;
15681;SDS011;7941;50.966;6.978;2022-09-13T14:29:58;3.87;;;1.80;;
15681;SDS011;7941;50.966;6.978;2022-09-13T14:32:27;1.80;;;1.27;;
15681;SDS011;7941;50.966;6.978;2022-09-13T14:37:22;4.17;;;1.60;;
15681;SDS011;7941;50.966;6.978;2022-09-13T14:40:31;2.03;;;1.47;;
15681;SDS011;7941;50.966;6.978;2022-09-13T14:42:39;1.40;;;1.30;;
15681;SDS011;7941;50.966;6.978;2022-09-13T14:45:11;1.93;;;1.37;;
15681;SDS011;7941;50.966;6.978;2022-09-13T14:50:14;2.87;;;1.50;;
15681;SDS011;7941;50.966;6.978;2022-09-13T14:52:44;3.80;;;1.67;;
15681;SDS011;7941;50.966;6.978;2022-09-13T14:55:13;2.83;;;1.50;;
15681;SDS011;7941;50.966;6.978;2022-09-13T14:57:42;2.27;;;1.70;;
15681;SDS011;7941;50.966;6.978;2022-09-13T15:02:39;3.93;;;2.67;;
15681;SDS011;7941;50.966;6.978;2022-09-13T15:05:11;2.73;;;1.60;;
15681;SDS011;7941;50.966;6.978;2022-09-13T15:07:38;2.63;;;1.60;;
15681;SDS011;7941;50.966;6.978;2022-09-13T15:15:24;3.17;;;1.60;;
15681;SDS011;7941;50.966;6.978;2022-09-13T15:20:18;3.97;;;1.60;;
15681;SDS011;7941;50.966;6.978;2022-09-13T15:22:46;2.67;;;1.57;;
15681;SDS011;7941;50.966;6.978;2022-09-13T15:25:27;3.03;;;2.03;;
15681;SDS011;7941;50.966;6.978;2022-09-13T15:27:56;3.87;;;1.70;;
15681;SDS011;7941;50.966;6.978;2022-09-13T15:32:49;3.73;;;1.83;;
15681;SDS011;7941;50.966;6.978;2022-09-13T15:35:27;3.27;;;1.40;;
15681;SDS011;7941;50.966;6.978;2022-09-13T15:37:57;3.43;;;2.00;;
15681;SDS011;7941;50.966;6.978;2022-09-13T15:40:24;3.70;;;1.90;;
15681;SDS011;7941;50.966;6.978;2022-09-13T15:42:51;2.10;;;1.50;;
15681;SDS011;7941;50.966;6.978;2022-09-13T15:45:19;3.27;;;2.00;;
15681;SDS011;7941;50.966;6.978;2022-09-13T15:47:49;3.13;;;2.03;;
15681;SDS011;7941;50.966;6.978;2022-09-13T15:50:20;3.50;;;1.90;;
15681;SDS011;7941;50.966;6.978;2022-09-13T15:52:46;3.95;;;1.88;;
15681;SDS011;7941;50.966;6.978;2022-09-13T15:55:13;4.23;;;1.70;;
15681;SDS011;7941;50.966;6.978;2022-09-13T15:57:39;4.93;;;1.97;;
15681;SDS011;7941;50.966;6.978;2022-09-13T16:00:05;4.73;;;1.70;;
15681;SDS011;7941;50.966;6.978;2022-09-13T16:02:32;5.20;;;2.10;;
15681;SDS011;7941;50.966;6.978;2022-09-13T16:04:59;2.63;;;1.80;;
15681;SDS011;7941;50.966;6.978;2022-09-13T16:07:26;5.27;;;2.20;;
15681;SDS011;7941;50.966;6.978;2022-09-13T16:09:52;3.57;;;2.00;;
15681;SDS011;7941;50.966;6.978;2022-09-13T16:12:18;5.80;;;2.40;;
15681;SDS011;7941;50.966;6.978;2022-09-13T16:14:48;5.53;;;2.13;;
15681;SDS011;7941;50.966;6.978;2022-09-13T16:17:21;3.53;;;2.13;;
15681;SDS011;7941;50.966;6.978;2022-09-13T16:19:48;5.37;;;2.10;;
15681;SDS011;7941;50.966;6.978;2022-09-13T16:22:14;3.77;;;2.70;;
15681;SDS011;7941;50.966;6.978;2022-09-13T16:24:40;4.50;;;2.50;;
15681;SDS011;7941;50.966;6.978;2022-09-13T16:27:08;4.77;;;2.63;;
15681;SDS011;7941;50.966;6.978;2022-09-13T16:29:34;3.33;;;2.50;;
15681;SDS011;7941;50.966;6.978;2022-09-13T16:32:01;3.07;;;2.33;;
15681;SDS011;7941;50.966;6.978;2022-09-13T16:34:27;5.67;;;2.77;;
15681;SDS011;7941;50.966;6.978;2022-09-13T16:36:53;4.43;;;2.37;;
15681;SDS011;7941;50.966;6.978;2022-09-13T16:39:19;6.73;;;2.70;;
15681;SDS011;7941;50.966;6.978;2022-09-13T16:41:45;6.23;;;2.70;;
15681;SDS011;7941;50.966;6.978;2022-09-13T16:44:12;5.03;;;2.40;;
15681;SDS011;7941;50.966;6.978;2022-09-13T16:46:39;5.67;;;2.53;;
15681;SDS011;7941;50.966;6.978;2022-09-13T16:49:05;3.57;;;2.37;;
15681;SDS011;7941;50.966;6.978;2022-09-13T16:51:31;5.03;;;3.03;;
15681;SDS011;7941;50.966;6.978;2022-09-13T16:53:58;5.67;;;2.73;;
15681;SDS011;7941;50.966;6.978;2022-09-13T16:56:25;5.30;;;2.87;;
15681;SDS011;7941;50.966;6.978;2022-09-13T16:58:51;6.77;;;2.80;;
15681;SDS011;7941;50.966;6.978;2022-09-13T17:01:22;4.07;;;3.00;;
15681;SDS011;7941;50.966;6.978;2022-09-13T17:03:49;7.27;;;3.03;;
15681;SDS011;7941;50.966;6.978;2022-09-13T17:06:16;8.37;;;3.40;;
15681;SDS011;7941;50.966;6.978;2022-09-13T17:08:45;5.47;;;2.83;;
15681;SDS011;7941;50.966;6.978;2022-09-13T17:11:12;8.53;;;3.00;;
15681;SDS011;7941;50.966;6.978;2022-09-13T17:13:39;3.57;;;2.63;;
15681;SDS011;7941;50.966;6.978;2022-09-13T17:16:15;8.03;;;3.40;;
15681;SDS011;7941;50.966;6.978;2022-09-13T17:18:43;3.93;;;3.10;;
15681;SDS011;7941;50.966;6.978;2022-09-13T17:21:09;4.10;;;3.60;;
15681;SDS011;7941;50.966;6.978;2022-09-13T17:23:35;4.43;;;3.97;;
15681;SDS011;7941;50.966;6.978;2022-09-13T17:26:01;6.27;;;3.50;;
15681;SDS011;7941;50.966;6.978;2022-09-13T17:28:27;9.20;;;3.50;;
15681;SDS011;7941;50.966;6.978;2022-09-13T17:30:54;4.97;;;3.50;;
15681;SDS011;7941;50.966;6.978;2022-09-13T17:33:20;6.07;;;3.67;;
15681;SDS011;7941;50.966;6.978;2022-09-13T17:35:46;10.47;;;4.60;;
15681;SDS011;7941;50.966;6.978;2022-09-13T17:38:22;6.53;;;4.20;;
15681;SDS011;7941;50.966;6.978;2022-09-13T17:40:57;7.97;;;4.80;;
15681;SDS011;7941;50.966;6.978;2022-09-13T17:43:23;15.97;;;9.63;;
15681;SDS011;7941;50.966;6.978;2022-09-13T17:45:49;10.40;;;4.70;;
15681;SDS011;7941;50.966;6.978;2022-09-13T17:48:15;8.40;;;4.97;;
15681;SDS011;7941;50.966;6.978;2022-09-13T17:50:41;7.93;;;5.17;;
15681;SDS011;7941;50.966;6.978;2022-09-13T17:53:08;9.07;;;6.10;;
15681;SDS011;7941;50.966;6.978;2022-09-13T17:55:36;7.63;;;5.50;;
15681;SDS011;7941;50.966;6.978;2022-09-13T17:58:02;7.83;;;6.10;;
15681;SDS011;7941;50.966;6.978;2022-09-13T18:00:28;8.67;;;5.43;;
15681;SDS011;7941;50.966;6.978;2022-09-13T18:02:56;5.67;;;4.93;;
15681;SDS011;7941;50.966;6.978;2022-09-13T18:05:22;9.07;;;5.70;;
15681;SDS011;7941;50.966;6.978;2022-09-13T18:07:48;8.50;;;6.00;;
15681;SDS011;7941;50.966;6.978;2022-09-13T18:10:14;6.90;;;6.10;;
15681;SDS011;7941;50.966;6.978;2022-09-13T18:12:41;7.87;;;6.13;;
15681;SDS011;7941;50.966;6.978;2022-09-13T18:15:07;8.07;;;6.27;;
15681;SDS011;7941;50.966;6.978;2022-09-13T18:17:36;13.97;;;9.80;;
15681;SDS011;7941;50.966;6.978;2022-09-13T18:20:03;12.97;;;9.27;;
15681;SDS011;7941;50.966;6.978;2022-09-13T18:22:29;9.23;;;7.77;;
15681;SDS011;7941;50.966;6.978;2022-09-13T18:24:55;12.93;;;9.00;;
15681;SDS011;7941;50.966;6.978;2022-09-13T18:27:21;10.77;;;8.10;;
15681;SDS011;7941;50.966;6.978;2022-09-13T18:29:47;7.87;;;7.10;;
15681;SDS011;7941;50.966;6.978;2022-09-13T18:32:14;10.23;;;8.00;;
15681;SDS011;7941;50.966;6.978;2022-09-13T18:34:40;9.83;;;7.90;;
15681;SDS011;7941;50.966;6.978;2022-09-13T18:37:08;10.43;;;8.43;;
15681;SDS011;7941;50.966;6.978;2022-09-13T18:39:34;10.53;;;8.60;;
15681;SDS011;7941;50.966;6.978;2022-09-13T18:42:00;11.53;;;8.67;;
15681;SDS011;7941;50.966;6.978;2022-09-13T18:44:27;10.00;;;9.07;;
15681;SDS011;7941;50.966;6.978;2022-09-13T18:46:54;12.57;;;9.50;;
15681;SDS011;7941;50.966;6.978;2022-09-13T18:49:22;10.40;;;9.50;;
15681;SDS011;7941;50.966;6.978;2022-09-13T18:51:48;11.27;;;10.03;;